LXFUN ELUS-ELLX
Flight info
| Callsign | LXFUN |
|---|---|
| Flight time | N/A |
| Altitude | 2000 |
| Route | ELUS/ELLX |
| Aircraft | C172/L-VGDW/C |
Departure
| Time | 2026-05-07 16:23 |
|---|---|
| Airport | Useldange Glider Field (ELUS) |
Arrival
| Time | N/A |
|---|---|
| Airport | Luxembourg-Findel International Airport (ELLX) |
| Time | Latitude | Longitude | Altitude | Speed | Heading |
|---|---|---|---|---|---|
| 2026-05-07 16:20 | 49.76779 | 5.97202 | 929 ft | 0 kts | 277° |
| 2026-05-07 16:21 | 49.76792 | 5.97056 | 932 ft | 35 kts | 277° |
| 2026-05-07 16:22 | 49.76836 | 5.96476 | 965 ft | 64 kts | 278° |
| 2026-05-07 16:22 | 49.77002 | 5.95835 | 1087 ft | 71 kts | 312° |
| 2026-05-07 16:22 | 49.77448 | 5.95376 | 1225 ft | 82 kts | 350° |
| 2026-05-07 16:22 | 49.78018 | 5.95599 | 1358 ft | 95 kts | 28° |
| 2026-05-07 16:23 | 49.78633 | 5.96045 | 1555 ft | 95 kts | 26° |
| 2026-05-07 16:23 | 49.79021 | 5.96838 | 1718 ft | 102 kts | 67° |
| 2026-05-07 16:23 | 49.79373 | 5.97801 | 1884 ft | 102 kts | 54° |
| 2026-05-07 16:23 | 49.79738 | 5.98754 | 1988 ft | 104 kts | 58° |
| 2026-05-07 16:24 | 49.79973 | 5.99383 | 1995 ft | 105 kts | 57° |
| 2026-05-07 16:24 | 49.80317 | 6.00263 | 2006 ft | 106 kts | 50° |
| 2026-05-07 16:24 | 49.80948 | 6.00810 | 2017 ft | 105 kts | 7° |
| 2026-05-07 16:24 | 49.81668 | 6.00719 | 2038 ft | 105 kts | 354° |
| 2026-05-07 16:25 | 49.82237 | 6.00713 | 2049 ft | 106 kts | 6° |
| 2026-05-07 16:26 | 49.76778 | 5.97206 | 930 ft | 0 kts | 277° |
| 2026-05-07 16:29 | 49.76788 | 5.96823 | 1008 ft | 75 kts | 276° |
| 2026-05-07 16:30 | 49.77236 | 5.96216 | 1266 ft | 125 kts | 341° |
| 2026-05-07 16:30 | 49.78107 | 5.96426 | 1639 ft | 130 kts | 36° |
| 2026-05-07 16:30 | 49.78800 | 5.96025 | 1480 ft | 160 kts | 10° |
| 2026-05-07 16:30 | 49.79174 | 5.97256 | 1599 ft | 157 kts | 102° |
| 2026-05-07 16:31 | 49.78395 | 5.98173 | 1551 ft | 154 kts | 124° |
| 2026-05-07 16:31 | 49.78419 | 5.99720 | 2094 ft | 153 kts | 85° |
| 2026-05-07 16:31 | 49.78472 | 6.01457 | 2009 ft | 173 kts | 85° |
| 2026-05-07 16:31 | 49.78750 | 6.03212 | 1778 ft | 180 kts | 60° |
| 2026-05-07 16:32 | 49.79247 | 6.04889 | 1579 ft | 173 kts | 123° |
| 2026-05-07 16:32 | 49.79020 | 6.06609 | 1192 ft | 162 kts | 135° |
| 2026-05-07 16:32 | 49.78777 | 6.08174 | 1272 ft | 165 kts | 78° |
| 2026-05-07 16:32 | 49.79045 | 6.09897 | 1197 ft | 168 kts | 50° |
| 2026-05-07 16:33 | 49.80035 | 6.10773 | 1176 ft | 160 kts | 47° |
| 2026-05-07 16:33 | 49.81133 | 6.10849 | 872 ft | 177 kts | 315° |
| 2026-05-07 16:33 | 49.82071 | 6.09845 | 880 ft | 169 kts | 6° |
| 2026-05-07 16:33 | 49.83145 | 6.09764 | 954 ft | 158 kts | 344° |
| 2026-05-07 16:34 | 49.84182 | 6.10250 | 985 ft | 166 kts | 22° |
| 2026-05-07 16:34 | 49.84904 | 6.11627 | 779 ft | 180 kts | 83° |
| 2026-05-07 16:34 | 49.84957 | 6.13298 | 996 ft | 155 kts | 54° |
| 2026-05-07 16:34 | 49.85873 | 6.14459 | 764 ft | 174 kts | 44° |
| 2026-05-07 16:35 | 49.86534 | 6.15907 | 777 ft | 166 kts | 62° |
| 2026-05-07 16:35 | 49.86801 | 6.17631 | 748 ft | 174 kts | 83° |
| 2026-05-07 16:35 | 49.87157 | 6.19391 | 797 ft | 165 kts | 76° |
| 2026-05-07 16:35 | 49.87363 | 6.21015 | 765 ft | 157 kts | 76° |
| 2026-05-07 16:36 | 49.87923 | 6.22026 | 1277 ft | 142 kts | 93° |
| 2026-05-07 16:36 | 49.87472 | 6.23647 | 801 ft | 183 kts | 153° |
| 2026-05-07 16:36 | 49.86277 | 6.24222 | 786 ft | 175 kts | 137° |
| 2026-05-07 16:36 | 49.86661 | 6.25213 | 1055 ft | 97 kts | 12° |
| 2026-05-07 16:37 | 49.87158 | 6.25859 | 990 ft | 123 kts | 53° |
| 2026-05-07 16:37 | 49.87116 | 6.27395 | 749 ft | 174 kts | 117° |
| 2026-05-07 16:37 | 49.87608 | 6.28025 | 1176 ft | 149 kts | 289° |
| 2026-05-07 16:37 | 49.88028 | 6.26406 | 1029 ft | 174 kts | 309° |
| 2026-05-07 16:38 | 49.88989 | 6.25206 | 818 ft | 177 kts | 318° |
| 2026-05-07 16:38 | 49.89748 | 6.23715 | 736 ft | 172 kts | 325° |
| 2026-05-07 16:38 | 49.90778 | 6.22846 | 751 ft | 158 kts | 349° |
| 2026-05-07 16:38 | 49.91761 | 6.22354 | 986 ft | 160 kts | 326° |
| 2026-05-07 16:39 | 49.92604 | 6.21372 | 1597 ft | 75 kts | 334° |
| 2026-05-07 16:39 | 49.92854 | 6.21241 | 2387 ft | 59 kts | 323° |
| 2026-05-07 16:39 | 49.93541 | 6.20097 | 1116 ft | 141 kts | 295° |
| 2026-05-07 16:39 | 49.92827 | 6.19762 | 1388 ft | 129 kts | 219° |
| 2026-05-07 16:40 | 49.92428 | 6.19943 | 1231 ft | 90 kts | 56° |
| 2026-05-07 16:40 | 49.92599 | 6.20428 | 1130 ft | 1 kts | 318° |
| 2026-05-07 16:40 | 49.92628 | 6.20409 | 1115 ft | 11 kts | 340° |
| 2026-05-07 16:40 | 49.92659 | 6.20397 | 1110 ft | 4 kts | 5° |
| 2026-05-07 16:41 | 49.92738 | 6.20312 | 1040 ft | 37 kts | 316° |
| 2026-05-07 16:41 | 49.92772 | 6.20279 | 1000 ft | 0 kts | 65° |